Airfield :
LOGIN :

Register | Disclaimer

   EN    FR    IT 

 










Legend :    VFR   Marginal VFR   IFR   Intensive IFR   Very Intensive IFR
Visi :
Ceiling :
>= 8 km
>= 3000ft
5 to 8 km
1000 to 3000 ft
1500m to 5 km
500 to 1000 ft
800 to 1500m
200 to 500 ft
< 800m
< 200 ft
Symbols :   Thunderstorms  Fog  Heavy snow  Heavy precipitations  Wind > 20 kt
SIGMETs :     Misc.  Thunderstorms  Icing  Turbulence  Mountain Waves  Volcanic Ashes






- Airport Elevation : 604 ft
- IATA code : LCJ


EPLL - Lodz

CURRENT METAR :
  • 301300Z 23007KT 200V260 9999 BKN012 01/M02 Q1024

EXPIRED METARs :
  • 301230Z 24007KT 9999 SCT014 01/M02 Q1024
  • 301200Z 24006KT 9999 SCT013 01/M02 Q1024
  • 301130Z 24007KT 9999 BKN011 01/M02 Q1025
  • 301100Z 21004KT 160V250 9000 SCT011 BKN016 01/M02 Q1025
  • 301030Z VRB02KT 9000 SCT009 BKN013 00/M01 Q1025

TAF TAF EPLL
Valid from the 30 at 12:00 until the 01 at 12:00 UTC


301130Z 3012/0112 22005KT 9999 BKN013
PROB40
TEMPO 3012/3015 BKN017
TEMPO 3015/3021 2500 -SN BR BKN004 BKN008
BECMG 3021/3023 18010KT SCT030
PROB40 3021/3024 4500 BR BKN014



MET'MAP, your aeronautical weather chart ! - Copyright ORBIFLY December 2007 - Disclaimer

ORBIFLY MET'MAP TEAM :

Programming & Development : Alexandra Zaïnal
Concept & original design : Baudouin d'Aumeries
Assistance for programming : Marc-Olivier Méhu
Technical & hardware support : Manuel Goepfert

Contact : metmap@orbifly.com




SOURCES & CREDITS :

   NOAA